createdAt,value
2018-08-25T00:00:44.310Z,2.75
2018-08-25T00:01:48.595Z,2.80
2018-08-25T00:02:52.818Z,2.40
2018-08-25T00:03:57.362Z,2.05
2018-08-25T00:05:01.611Z,2.52
2018-08-25T00:06:06.019Z,2.33
2018-08-25T00:07:10.315Z,2.30
2018-08-25T00:08:14.495Z,2.62
2018-08-25T00:09:18.735Z,2.08
2018-08-25T00:10:22.942Z,2.92
2018-08-25T00:11:27.119Z,2.45
2018-08-25T00:12:31.283Z,2.58
2018-08-25T00:13:35.456Z,2.15
2018-08-25T00:14:39.642Z,2.35
2018-08-25T00:15:43.855Z,3.25
2018-08-25T00:16:48.173Z,3.00
2018-08-25T00:17:52.519Z,2.98
2018-08-25T00:18:56.719Z,3.30
2018-08-25T00:20:00.914Z,1.82
2018-08-25T00:21:05.403Z,1.95
2018-08-25T00:22:09.568Z,2.15
2018-08-25T00:23:13.815Z,3.45
2018-08-25T00:24:17.976Z,1.90
2018-08-25T00:25:22.223Z,1.90
2018-08-25T00:26:26.489Z,1.95
2018-08-25T00:27:30.838Z,2.00
2018-08-25T00:28:34.978Z,2.22
2018-08-25T00:29:39.153Z,1.55
2018-08-25T00:30:48.683Z,3.02
2018-08-25T00:31:53.371Z,1.87
2018-08-25T00:32:57.534Z,2.10
2018-08-25T00:34:01.846Z,1.80
2018-08-25T00:35:06.020Z,2.45
2018-08-25T00:36:10.205Z,1.95
2018-08-25T00:37:14.399Z,1.62
2018-08-25T00:38:18.587Z,2.10
2018-08-25T00:39:22.751Z,1.52
2018-08-25T00:40:27.081Z,1.55
2018-08-25T00:41:31.235Z,1.65
2018-08-25T00:42:35.467Z,2.30
2018-08-25T00:43:39.720Z,2.02
2018-08-25T00:44:44.022Z,1.50
2018-08-25T00:45:48.243Z,2.00
2018-08-25T00:46:52.449Z,1.42
2018-08-25T00:47:56.664Z,1.87
2018-08-25T00:49:00.995Z,1.60
2018-08-25T00:50:05.289Z,1.90
2018-08-25T00:51:09.530Z,1.52
2018-08-25T00:52:13.912Z,2.05
2018-08-25T00:53:18.124Z,1.77
2018-08-25T00:54:22.417Z,2.52
2018-08-25T00:55:26.683Z,1.82
2018-08-25T00:56:30.866Z,1.60
2018-08-25T00:57:35.075Z,1.95
2018-08-25T00:58:39.347Z,1.80
2018-08-25T00:59:43.550Z,1.75
2018-08-25T01:00:48.300Z,2.00
2018-08-25T01:01:52.483Z,1.70
2018-08-25T01:02:56.690Z,2.30
2018-08-25T01:04:00.905Z,1.75
2018-08-25T01:05:05.096Z,2.00
2018-08-25T01:06:09.363Z,2.20
2018-08-25T01:07:13.523Z,1.37
2018-08-25T01:08:17.740Z,1.60
2018-08-25T01:09:22.314Z,1.90
2018-08-25T01:10:26.518Z,1.80
2018-08-25T01:11:30.720Z,1.47
2018-08-25T01:12:35.166Z,2.15
2018-08-25T01:13:39.655Z,1.90
2018-08-25T01:14:43.907Z,1.70
2018-08-25T01:15:48.626Z,1.50
2018-08-25T01:16:52.720Z,1.77
2018-08-25T01:17:56.972Z,2.45
2018-08-25T01:19:01.090Z,1.90
2018-08-25T01:20:05.436Z,1.87
2018-08-25T01:21:09.762Z,1.60
2018-08-25T01:22:13.943Z,2.25
2018-08-25T01:23:18.185Z,1.95
2018-08-25T01:24:22.381Z,2.67
2018-08-25T01:25:26.587Z,1.95
2018-08-25T01:26:30.825Z,2.00
2018-08-25T01:27:35.034Z,2.83
2018-08-25T01:28:39.182Z,2.62
2018-08-25T01:29:43.355Z,3.02
2018-08-25T01:30:47.543Z,3.67
2018-08-25T01:31:52.203Z,3.70
2018-08-25T01:32:56.364Z,4.75
2018-08-25T01:34:01.483Z,4.90
2018-08-25T01:35:05.818Z,5.72
2018-08-25T01:36:10.158Z,5.65
2018-08-25T01:37:14.340Z,6.60
2018-08-25T01:38:18.508Z,6.50
2018-08-25T01:39:22.735Z,6.75
2018-08-25T01:40:26.907Z,6.28
2018-08-25T01:41:31.232Z,6.62
2018-08-25T01:42:35.375Z,6.12
2018-08-25T01:43:39.781Z,5.53
2018-08-25T01:44:44.103Z,5.60
2018-08-25T01:45:48.263Z,5.20
2018-08-25T01:46:52.476Z,6.08
2018-08-25T01:47:56.770Z,4.85
2018-08-25T01:49:00.926Z,4.80
2018-08-25T01:50:05.282Z,4.15
2018-08-25T01:51:09.429Z,4.00
2018-08-25T01:52:13.898Z,3.50
2018-08-25T01:53:18.066Z,3.27
2018-08-25T01:54:22.240Z,3.40
2018-08-25T01:55:26.600Z,2.92
2018-08-25T01:56:30.811Z,3.22
2018-08-25T01:57:35.238Z,3.15
2018-08-25T01:58:39.469Z,3.30
2018-08-25T01:59:43.695Z,2.95
2018-08-25T02:00:47.886Z,2.85
2018-08-25T02:01:52.183Z,2.70
2018-08-25T02:02:56.367Z,2.98
2018-08-25T02:04:00.541Z,2.45
2018-08-25T02:05:04.699Z,2.15
2018-08-25T02:06:08.876Z,2.45
2018-08-25T02:07:13.037Z,3.10
2018-08-25T02:08:17.254Z,2.40
2018-08-25T02:09:21.453Z,2.87
2018-08-25T02:10:25.620Z,2.30
2018-08-25T02:11:29.795Z,2.83
2018-08-25T02:12:33.954Z,2.08
2018-08-25T02:13:38.142Z,1.82
2018-08-25T02:14:42.414Z,2.27
2018-08-25T02:15:46.584Z,1.80
2018-08-25T02:16:50.923Z,1.70
2018-08-25T02:17:55.399Z,1.80
2018-08-25T02:18:59.642Z,2.20
2018-08-25T02:20:04.121Z,1.75
2018-08-25T02:21:08.331Z,2.30
2018-08-25T02:22:12.512Z,2.10
2018-08-25T02:23:16.690Z,2.05
2018-08-25T02:24:20.875Z,2.05
2018-08-25T02:25:25.284Z,2.27
2018-08-25T02:26:29.455Z,1.92
2018-08-25T02:27:33.627Z,2.00
2018-08-25T02:28:38.000Z,2.30
2018-08-25T02:29:42.185Z,2.27
2018-08-25T02:30:46.380Z,2.65
2018-08-25T02:31:50.642Z,1.72
2018-08-25T02:32:54.867Z,1.62
2018-08-25T02:33:59.071Z,2.00
2018-08-25T02:35:03.363Z,2.77
2018-08-25T02:36:07.787Z,2.00
2018-08-25T02:37:12.203Z,1.70
2018-08-25T02:38:16.380Z,1.60
2018-08-25T02:39:20.561Z,2.65
2018-08-25T02:40:26.935Z,1.65
2018-08-25T02:41:31.122Z,2.52
2018-08-25T02:42:35.639Z,1.52
2018-08-25T02:43:40.107Z,2.15
2018-08-25T02:44:44.293Z,2.00
2018-08-25T02:45:48.507Z,2.58
2018-08-25T02:46:54.117Z,1.80
2018-08-25T02:47:58.814Z,1.90
2018-08-25T02:49:02.975Z,2.30
2018-08-25T02:50:07.191Z,2.27
2018-08-25T02:51:11.575Z,2.50
2018-08-25T02:52:16.044Z,3.10
2018-08-25T02:53:20.192Z,2.75
2018-08-25T02:54:24.415Z,3.10
2018-08-25T02:55:28.684Z,3.10
2018-08-25T02:56:33.068Z,3.92
2018-08-25T02:57:37.247Z,2.60
2018-08-25T02:58:41.478Z,3.00
2018-08-25T02:59:45.836Z,2.92
2018-08-25T03:00:50.019Z,3.62
2018-08-25T03:01:54.268Z,2.83
2018-08-25T03:02:58.503Z,2.62
2018-08-25T03:04:02.655Z,2.25
2018-08-25T03:05:06.875Z,2.58
2018-08-25T03:06:11.064Z,2.35
2018-08-25T03:07:15.324Z,2.45
2018-08-25T03:08:19.468Z,1.87
2018-08-25T03:09:23.951Z,2.37
2018-08-25T03:10:28.121Z,2.33
2018-08-25T03:11:32.510Z,1.95
2018-08-25T03:12:36.750Z,1.70
2018-08-25T03:13:40.936Z,1.87
2018-08-25T03:14:45.274Z,2.10
2018-08-25T03:15:49.656Z,2.20
2018-08-25T03:16:53.847Z,1.70
2018-08-25T03:17:58.067Z,2.08
2018-08-25T03:19:02.411Z,1.72
2018-08-25T03:20:06.576Z,1.50
2018-08-25T03:21:10.759Z,2.22
2018-08-25T03:22:14.907Z,1.77
2018-08-25T03:23:19.102Z,1.80
2018-08-25T03:24:23.308Z,1.40
2018-08-25T03:25:27.456Z,2.10
2018-08-25T03:26:31.657Z,1.80
2018-08-25T03:27:36.039Z,2.25
2018-08-25T03:28:40.383Z,1.62
2018-08-25T03:29:44.759Z,1.90
2018-08-25T03:30:48.931Z,2.27
2018-08-25T03:31:53.107Z,1.70
2018-08-25T03:32:57.309Z,1.85
2018-08-25T03:34:01.579Z,1.80
2018-08-25T03:35:05.871Z,1.80
2018-08-25T03:36:10.049Z,2.30
2018-08-25T03:37:14.298Z,1.90
2018-08-25T03:38:18.501Z,2.70
2018-08-25T03:39:22.716Z,1.90
2018-08-25T03:40:27.103Z,1.70
2018-08-25T03:41:31.299Z,1.70
2018-08-25T03:42:35.525Z,1.62
2018-08-25T03:43:39.674Z,1.45
2018-08-25T03:44:44.011Z,1.60
2018-08-25T03:45:48.140Z,1.60
2018-08-25T03:46:52.355Z,2.15
2018-08-25T03:47:56.535Z,2.20
2018-08-25T03:49:00.720Z,1.77
2018-08-25T03:50:05.071Z,2.12
2018-08-25T03:51:09.285Z,2.80
2018-08-25T03:52:13.594Z,2.02
2018-08-25T03:53:17.804Z,2.35
2018-08-25T03:54:21.974Z,1.80
2018-08-25T03:55:26.228Z,2.10
2018-08-25T03:56:30.411Z,2.50
2018-08-25T03:57:34.568Z,2.37
2018-08-25T03:58:38.736Z,2.40
2018-08-25T03:59:43.116Z,2.15
2018-08-25T04:00:47.682Z,3.40
2018-08-25T04:01:51.843Z,2.47
2018-08-25T04:02:56.026Z,2.20
2018-08-25T04:04:00.223Z,2.58
2018-08-25T04:05:04.927Z,2.55
2018-08-25T04:06:09.131Z,2.50
2018-08-25T04:07:13.474Z,2.75
2018-08-25T04:08:17.829Z,2.08
2018-08-25T04:09:22.169Z,1.72
2018-08-25T04:10:26.667Z,2.05
2018-08-25T04:11:30.851Z,2.33
2018-08-25T04:12:34.991Z,2.17
2018-08-25T04:13:39.138Z,2.50
2018-08-25T04:14:43.392Z,1.92
2018-08-25T04:15:47.728Z,2.27
2018-08-25T04:16:51.872Z,2.42
2018-08-25T04:17:56.010Z,2.00
2018-08-25T04:19:00.227Z,2.75
2018-08-25T04:20:04.419Z,2.35
2018-08-25T04:21:08.632Z,2.08
2018-08-25T04:22:12.800Z,2.30
2018-08-25T04:23:16.950Z,2.80
2018-08-25T04:24:21.495Z,2.60
2018-08-25T04:25:25.652Z,4.17
2018-08-25T04:26:29.815Z,2.80
2018-08-25T04:27:34.088Z,3.62
2018-08-25T04:28:38.204Z,3.02
2018-08-25T04:29:42.395Z,3.20
2018-08-25T04:30:46.554Z,2.90
2018-08-25T04:31:50.908Z,3.25
2018-08-25T04:32:55.100Z,2.70
2018-08-25T04:33:59.252Z,3.02
2018-08-25T04:35:03.446Z,2.70
2018-08-25T04:36:07.810Z,2.60
2018-08-25T04:37:11.988Z,2.77
2018-08-25T04:38:16.240Z,3.62
2018-08-25T04:39:20.397Z,2.95
2018-08-25T04:40:24.583Z,3.80
2018-08-25T04:41:28.725Z,2.92
2018-08-25T04:42:32.884Z,3.87
2018-08-25T04:43:37.091Z,3.08
2018-08-25T04:44:41.222Z,2.55
2018-08-25T04:45:45.564Z,3.08
2018-08-25T04:46:49.735Z,2.62
2018-08-25T04:47:53.890Z,2.60
2018-08-25T04:48:58.318Z,2.22
2018-08-25T04:50:02.591Z,2.62
2018-08-25T04:51:06.785Z,2.80
2018-08-25T04:52:11.113Z,2.60
2018-08-25T04:53:15.275Z,2.80
2018-08-25T04:54:19.777Z,2.50
2018-08-25T04:55:23.959Z,2.62
2018-08-25T04:56:28.183Z,2.35
2018-08-25T04:57:32.403Z,2.40
2018-08-25T04:58:36.741Z,2.60
2018-08-25T04:59:41.060Z,3.12
2018-08-25T05:00:45.196Z,2.62
2018-08-25T05:01:49.412Z,2.05
2018-08-25T05:02:53.777Z,2.62
2018-08-25T05:03:57.929Z,2.20
2018-08-25T05:05:02.190Z,2.50
2018-08-25T05:06:06.392Z,2.22
2018-08-25T05:07:10.671Z,2.00
2018-08-25T05:08:14.846Z,2.77
2018-08-25T05:09:19.122Z,2.37
2018-08-25T05:10:23.343Z,2.17
2018-08-25T05:11:27.835Z,2.60
2018-08-25T05:12:31.981Z,2.27
2018-08-25T05:13:36.122Z,2.20
2018-08-25T05:14:40.274Z,2.58
2018-08-25T05:15:44.488Z,2.08
2018-08-25T05:16:48.772Z,2.58
2018-08-25T05:17:52.920Z,2.83
2018-08-25T05:18:57.092Z,2.37
2018-08-25T05:20:01.375Z,2.75
2018-08-25T05:21:05.645Z,2.20
2018-08-25T05:22:10.075Z,2.35
2018-08-25T05:23:14.260Z,2.40
2018-08-25T05:24:18.437Z,2.37
2018-08-25T05:25:22.802Z,2.77
2018-08-25T05:26:26.958Z,2.20
2018-08-25T05:27:31.287Z,2.10
2018-08-25T05:28:35.432Z,2.42
2018-08-25T05:29:39.623Z,2.00
2018-08-25T05:30:43.963Z,2.55
2018-08-25T05:31:48.136Z,3.08
2018-08-25T05:32:52.284Z,2.47
2018-08-25T05:33:56.636Z,2.55
2018-08-25T05:35:00.751Z,2.20
2018-08-25T05:36:04.903Z,2.30
2018-08-25T05:37:09.099Z,2.40
2018-08-25T05:38:13.263Z,3.02
2018-08-25T05:39:17.394Z,2.50
2018-08-25T05:40:21.738Z,2.22
2018-08-25T05:41:25.982Z,2.47
2018-08-25T05:42:30.215Z,1.80
2018-08-25T05:43:34.421Z,2.52
2018-08-25T05:44:38.714Z,2.30
2018-08-25T05:45:43.212Z,2.30
2018-08-25T05:46:47.352Z,2.00
2018-08-25T05:47:51.532Z,2.70
2018-08-25T05:48:55.708Z,3.00
2018-08-25T05:49:59.890Z,2.40
2018-08-25T05:51:04.107Z,3.42
2018-08-25T05:52:08.303Z,3.20
2018-08-25T05:53:12.479Z,2.35
2018-08-25T05:54:16.653Z,2.85
2018-08-25T05:55:20.793Z,2.80
2018-08-25T05:56:25.229Z,2.60
2018-08-25T05:57:29.642Z,2.62
2018-08-25T05:58:33.892Z,2.47
2018-08-25T05:59:38.040Z,3.33
2018-08-25T06:00:42.289Z,2.70
2018-08-25T06:01:46.496Z,3.05
2018-08-25T06:02:50.687Z,2.50
2018-08-25T06:03:55.212Z,3.05
2018-08-25T06:04:59.357Z,2.70
2018-08-25T06:06:03.499Z,3.25
2018-08-25T06:07:07.760Z,2.67
2018-08-25T06:08:11.943Z,3.08
2018-08-25T06:09:16.132Z,3.55
2018-08-25T06:10:20.347Z,3.60
2018-08-25T06:11:24.476Z,3.35
2018-08-25T06:12:29.174Z,2.83
2018-08-25T06:13:33.400Z,2.80
2018-08-25T06:14:37.673Z,2.70
2018-08-25T06:15:42.093Z,3.30
2018-08-25T06:16:46.273Z,3.08
2018-08-25T06:17:50.461Z,2.98
2018-08-25T06:18:54.675Z,3.12
2018-08-25T06:19:58.914Z,3.00
2018-08-25T06:21:03.147Z,4.67
2018-08-25T06:22:07.327Z,2.90
2018-08-25T06:23:11.539Z,3.60
2018-08-25T06:24:15.863Z,3.58
2018-08-25T06:25:20.079Z,3.25
2018-08-25T06:26:24.259Z,3.92
2018-08-25T06:27:28.454Z,3.62
2018-08-25T06:28:32.899Z,3.20
2018-08-25T06:29:37.088Z,3.20
2018-08-25T06:30:41.292Z,4.00
2018-08-25T06:31:45.453Z,3.72
2018-08-25T06:32:49.622Z,3.90
2018-08-25T06:33:53.906Z,3.70
2018-08-25T06:34:58.096Z,4.67
2018-08-25T06:36:02.471Z,4.10
2018-08-25T06:37:06.675Z,4.05
2018-08-25T06:38:11.110Z,4.30
2018-08-25T06:39:15.243Z,4.47
2018-08-25T06:40:19.670Z,5.20
2018-08-25T06:41:23.811Z,4.60
2018-08-25T06:42:28.021Z,4.72
2018-08-25T06:43:32.150Z,4.58
2018-08-25T06:44:36.352Z,5.33
2018-08-25T06:45:40.536Z,5.25
2018-08-25T06:46:44.716Z,5.25
2018-08-25T06:47:48.935Z,4.80
2018-08-25T06:48:53.095Z,5.80
2018-08-25T06:49:57.484Z,5.45
2018-08-25T06:51:01.672Z,5.70
2018-08-25T06:52:06.464Z,6.05
2018-08-25T06:53:10.834Z,5.42
2018-08-25T06:54:15.001Z,4.53
2018-08-25T06:55:19.212Z,5.60
2018-08-25T06:56:23.379Z,5.80
2018-08-25T06:57:27.591Z,5.40
2018-08-25T06:58:31.762Z,5.20
2018-08-25T06:59:36.131Z,5.20
2018-08-25T07:00:40.238Z,5.30
2018-08-25T07:01:44.437Z,4.90
2018-08-25T07:02:48.643Z,5.58
2018-08-25T07:03:52.904Z,5.62
2018-08-25T07:04:57.084Z,5.62
2018-08-25T07:06:01.292Z,4.72
2018-08-25T07:07:05.802Z,5.40
2018-08-25T07:08:09.992Z,5.20
2018-08-25T07:09:14.263Z,6.15
2018-08-25T07:10:18.868Z,5.22
2018-08-25T07:11:23.129Z,4.65
2018-08-25T07:12:27.271Z,5.37
2018-08-25T07:13:31.823Z,4.85
2018-08-25T07:14:36.002Z,5.35
2018-08-25T07:15:40.259Z,5.90
2018-08-25T07:16:44.469Z,5.83
2018-08-25T07:17:48.665Z,5.60
2018-08-25T07:18:52.903Z,5.95
2018-08-25T07:19:57.153Z,5.45
2018-08-25T07:21:01.348Z,5.58
2018-08-25T07:22:04.851Z,6.97
2018-08-25T07:23:09.013Z,5.65
2018-08-25T07:24:13.275Z,6.00
2018-08-25T07:25:17.503Z,5.42
2018-08-25T07:26:21.762Z,5.45
2018-08-25T07:27:25.911Z,5.28
2018-08-25T07:28:30.099Z,4.25
2018-08-25T07:29:34.294Z,4.60
2018-08-25T07:30:38.454Z,5.10
2018-08-25T07:31:42.602Z,4.45
2018-08-25T07:32:46.863Z,5.10
2018-08-25T07:33:51.339Z,4.53
2018-08-25T07:34:55.739Z,5.12
2018-08-25T07:35:59.955Z,4.60
2018-08-25T07:37:04.140Z,4.47
2018-08-25T07:38:08.420Z,4.55
2018-08-25T07:39:13.734Z,4.30
2018-08-25T07:40:17.940Z,4.50
2018-08-25T07:41:22.118Z,4.60
2018-08-25T07:42:26.318Z,4.53
2018-08-25T07:43:30.504Z,4.30
2018-08-25T07:44:34.715Z,4.90
2018-08-25T07:45:38.951Z,4.42
2018-08-25T07:46:43.205Z,3.92
2018-08-25T07:47:47.513Z,4.40
2018-08-25T07:48:51.820Z,4.65
2018-08-25T07:49:56.086Z,4.67
2018-08-25T07:51:00.385Z,4.37
2018-08-25T07:52:04.539Z,4.15
2018-08-25T07:53:08.847Z,5.00
2018-08-25T07:54:13.060Z,4.12
2018-08-25T07:55:17.255Z,4.72
2018-08-25T07:56:21.419Z,4.78
2018-08-25T07:57:25.767Z,4.28
2018-08-25T07:58:30.267Z,4.05
2018-08-25T07:59:34.407Z,3.85
2018-08-25T08:00:38.568Z,3.42
2018-08-25T08:01:42.945Z,4.15
2018-08-25T08:02:47.202Z,4.20
2018-08-25T08:03:51.348Z,5.33
2018-08-25T08:04:55.533Z,4.20
2018-08-25T08:05:59.729Z,3.40
2018-08-25T08:07:04.229Z,3.42
2018-08-25T08:08:08.420Z,4.12
2018-08-25T08:09:12.639Z,3.70
2018-08-25T08:10:16.796Z,4.00
2018-08-25T08:11:21.048Z,3.92
2018-08-25T08:12:25.357Z,3.50
2018-08-25T08:13:29.664Z,3.83
2018-08-25T08:14:34.135Z,3.72
2018-08-25T08:15:38.303Z,3.50
2018-08-25T08:16:42.505Z,3.25
2018-08-25T08:17:46.684Z,3.37
2018-08-25T08:18:50.870Z,3.25
2018-08-25T08:19:55.027Z,2.92
2018-08-25T08:20:59.171Z,3.00
2018-08-25T08:22:03.339Z,2.90
2018-08-25T08:23:07.587Z,3.25
2018-08-25T08:24:11.776Z,2.75
2018-08-25T08:25:15.950Z,2.50
2018-08-25T08:26:20.125Z,2.55
2018-08-25T08:27:24.287Z,2.52
2018-08-25T08:28:28.537Z,2.10
2018-08-25T08:29:32.661Z,2.50
2018-08-25T08:30:36.994Z,2.55
2018-08-25T08:31:41.161Z,2.83
2018-08-25T08:32:45.457Z,2.60
2018-08-25T08:33:49.630Z,2.87
2018-08-25T08:34:53.972Z,2.02
2018-08-25T08:35:58.107Z,2.25
2018-08-25T08:37:02.246Z,2.40
2018-08-25T08:38:06.431Z,2.65
2018-08-25T08:39:10.949Z,2.10
2018-08-25T08:40:15.122Z,2.55
2018-08-25T08:41:19.816Z,2.40
2018-08-25T08:42:24.007Z,2.55
2018-08-25T08:43:28.122Z,1.82
2018-08-25T08:44:32.329Z,2.37
2018-08-25T08:45:36.533Z,2.10
2018-08-25T08:46:40.700Z,2.00
2018-08-25T08:47:44.886Z,1.70
2018-08-25T08:48:49.202Z,2.10
2018-08-25T08:49:53.409Z,2.50
2018-08-25T08:50:57.695Z,2.10
2018-08-25T08:52:02.276Z,2.05
2018-08-25T08:53:06.850Z,1.90
2018-08-25T08:54:11.028Z,1.72
2018-08-25T08:55:15.215Z,1.50
2018-08-25T08:56:19.423Z,1.60
2018-08-25T08:57:23.607Z,1.50
2018-08-25T08:58:27.782Z,1.40
2018-08-25T08:59:31.914Z,1.67
2018-08-25T09:00:36.121Z,1.40
2018-08-25T09:01:40.272Z,1.25
2018-08-25T09:02:44.539Z,1.62
2018-08-25T09:03:48.732Z,1.70
2018-08-25T09:04:52.983Z,1.65
2018-08-25T09:05:57.177Z,1.42
2018-08-25T09:07:01.559Z,1.42
2018-08-25T09:08:06.009Z,1.30
2018-08-25T09:09:10.888Z,1.50
2018-08-25T09:10:15.229Z,1.40
2018-08-25T09:11:19.468Z,1.70
2018-08-25T09:12:23.635Z,1.40
2018-08-25T09:13:27.793Z,1.65
2018-08-25T09:14:31.947Z,1.25
2018-08-25T09:15:36.360Z,1.27
2018-08-25T09:16:40.544Z,1.65
2018-08-25T09:17:44.749Z,1.20
2018-08-25T09:18:49.034Z,1.37
2018-08-25T09:19:53.236Z,1.50
2018-08-25T09:20:57.424Z,1.55
2018-08-25T09:22:01.632Z,1.30
2018-08-25T09:23:05.892Z,1.60
2018-08-25T09:24:10.096Z,1.65
2018-08-25T09:25:14.275Z,1.77
2018-08-25T09:26:18.431Z,1.70
2018-08-25T09:27:22.719Z,1.20
2018-08-25T09:28:26.889Z,2.37
2018-08-25T09:29:31.057Z,1.40
2018-08-25T09:30:35.487Z,1.35
2018-08-25T09:31:39.709Z,1.50
2018-08-25T09:32:44.235Z,1.30
2018-08-25T09:33:48.503Z,1.40
2018-08-25T09:34:52.735Z,1.30
2018-08-25T09:35:56.954Z,1.40
2018-08-25T09:37:01.275Z,1.32
2018-08-25T09:38:05.837Z,1.60
2018-08-25T09:39:11.090Z,1.72
2018-08-25T09:40:15.880Z,1.75
2018-08-25T09:41:20.003Z,1.75
2018-08-25T09:42:24.194Z,1.25
2018-08-25T09:43:28.423Z,1.40
2018-08-25T09:44:32.731Z,1.32
2018-08-25T09:45:36.935Z,1.40
2018-08-25T09:46:41.214Z,1.70
2018-08-25T09:47:45.449Z,2.00
2018-08-25T09:48:49.872Z,1.87
2018-08-25T09:49:54.064Z,1.70
2018-08-25T09:50:58.243Z,1.98
2018-08-25T09:52:02.453Z,1.62
2018-08-25T09:53:06.795Z,1.70
2018-08-25T09:54:11.027Z,1.15
2018-08-25T09:55:15.323Z,1.40
2018-08-25T09:56:19.582Z,1.50
2018-08-25T09:57:23.909Z,1.65
2018-08-25T09:58:28.071Z,1.42
2018-08-25T09:59:32.319Z,1.42
2018-08-25T10:00:36.614Z,1.40
2018-08-25T10:01:46.055Z,1.40
2018-08-25T10:02:50.240Z,1.60
2018-08-25T10:03:54.425Z,1.50
2018-08-25T10:04:58.684Z,1.37
2018-08-25T10:06:02.971Z,1.52
2018-08-25T10:07:07.351Z,1.50
2018-08-25T10:08:11.513Z,1.45
2018-08-25T10:09:15.696Z,1.55
2018-08-25T10:10:19.899Z,1.40
2018-08-25T10:11:24.422Z,1.57
2018-08-25T10:12:28.596Z,1.30
2018-08-25T10:13:32.809Z,1.22
2018-08-25T10:14:37.003Z,1.50
2018-08-25T10:15:41.469Z,1.10
2018-08-25T10:16:45.737Z,1.62
2018-08-25T10:17:49.955Z,1.30
2018-08-25T10:18:54.133Z,1.40
2018-08-25T10:19:58.361Z,1.30
2018-08-25T10:21:02.891Z,1.30
2018-08-25T10:22:07.113Z,1.30
2018-08-25T10:23:11.814Z,1.50
2018-08-25T10:24:16.005Z,1.57
2018-08-25T10:25:20.409Z,2.10
2018-08-25T10:26:24.665Z,1.10
2018-08-25T10:27:28.964Z,1.40
2018-08-25T10:28:33.183Z,1.22
2018-08-25T10:29:37.571Z,1.35
2018-08-25T10:30:41.828Z,1.22
2018-08-25T10:31:46.049Z,1.62
2018-08-25T10:32:50.255Z,1.60
2018-08-25T10:33:54.483Z,1.20
2018-08-25T10:34:58.873Z,1.40
2018-08-25T10:36:03.061Z,1.57
2018-08-25T10:37:07.292Z,1.45
2018-08-25T10:38:11.623Z,1.40
2018-08-25T10:39:15.823Z,1.37
2018-08-25T10:40:20.004Z,1.50
2018-08-25T10:41:24.169Z,1.35
2018-08-25T10:42:28.416Z,1.70
2018-08-25T10:43:32.582Z,1.50
2018-08-25T10:44:37.024Z,1.70
2018-08-25T10:45:41.307Z,1.42
2018-08-25T10:46:45.640Z,1.77
2018-08-25T10:47:49.856Z,1.50
2018-08-25T10:48:54.071Z,1.30
2018-08-25T10:49:58.280Z,1.40
2018-08-25T10:51:02.537Z,1.37
2018-08-25T10:52:07.033Z,1.60
2018-08-25T10:53:11.256Z,1.30
2018-08-25T10:54:21.870Z,1.27
2018-08-25T10:55:26.044Z,1.40
2018-08-25T10:56:30.244Z,1.40
2018-08-25T10:57:34.561Z,1.50
2018-08-25T10:58:38.962Z,1.25
2018-08-25T10:59:43.128Z,1.40
2018-08-25T11:00:47.527Z,1.40
2018-08-25T11:01:51.589Z,1.30
2018-08-25T11:02:55.986Z,1.10
2018-08-25T11:04:00.219Z,1.52
2018-08-25T11:05:04.740Z,1.10
2018-08-25T11:06:08.911Z,1.30
2018-08-25T11:07:13.095Z,1.60
2018-08-25T11:08:17.262Z,1.37
2018-08-25T11:09:21.527Z,1.40
2018-08-25T11:10:26.139Z,1.75
2018-08-25T11:11:30.323Z,1.85
2018-08-25T11:12:34.559Z,1.85
2018-08-25T11:13:38.770Z,3.33
2018-08-25T11:14:43.657Z,2.37
2018-08-25T11:15:48.260Z,2.40
2018-08-25T11:16:52.443Z,2.70
2018-08-25T11:17:56.781Z,2.12
2018-08-25T11:19:01.042Z,2.40
2018-08-25T11:20:05.332Z,2.25
2018-08-25T11:21:09.532Z,2.92
2018-08-25T11:22:13.731Z,2.87
2018-08-25T11:23:17.947Z,3.58
2018-08-25T11:24:22.383Z,2.90
2018-08-25T11:25:26.671Z,3.42
2018-08-25T11:26:30.956Z,3.12
2018-08-25T11:27:35.187Z,3.20
2018-08-25T11:28:39.572Z,3.33
2018-08-25T11:29:43.703Z,3.08
2018-08-25T11:30:47.927Z,5.37
2018-08-25T11:31:52.163Z,4.00
2018-08-25T11:32:56.339Z,3.60
2018-08-25T11:34:00.632Z,4.00
2018-08-25T11:35:05.897Z,4.50
2018-08-25T11:36:10.151Z,4.87
2018-08-25T11:37:14.490Z,3.65
2018-08-25T11:38:18.777Z,3.80
2018-08-25T11:39:22.971Z,3.92
2018-08-25T11:40:27.159Z,3.83
2018-08-25T11:41:32.076Z,3.90
2018-08-25T11:42:36.271Z,3.90
2018-08-25T11:43:40.540Z,3.45
2018-08-25T11:44:44.717Z,3.52
2018-08-25T11:45:48.964Z,3.17
2018-08-25T11:46:53.154Z,3.25
2018-08-25T11:47:57.308Z,3.50
2018-08-25T11:49:01.473Z,3.80
2018-08-25T11:50:06.179Z,3.33
2018-08-25T11:51:10.416Z,3.42
2018-08-25T11:52:14.781Z,2.83
2018-08-25T11:53:18.951Z,3.00
2018-08-25T11:54:23.412Z,3.60
2018-08-25T11:55:27.555Z,3.27
2018-08-25T11:56:32.188Z,3.40
2018-08-25T11:57:36.423Z,3.83
2018-08-25T11:58:40.597Z,3.20
2018-08-25T11:59:44.797Z,3.30
2018-08-25T12:00:49.133Z,3.87
2018-08-25T12:01:53.419Z,4.17
2018-08-25T12:02:57.655Z,3.50
2018-08-25T12:04:02.129Z,3.90
2018-08-25T12:05:06.560Z,3.65
2018-08-25T12:06:10.749Z,3.70
2018-08-25T12:07:14.936Z,3.70
2018-08-25T12:08:19.192Z,3.60
2018-08-25T12:09:23.428Z,3.42
2018-08-25T12:10:27.587Z,3.87
2018-08-25T12:11:31.770Z,4.00
2018-08-25T12:12:35.956Z,3.58
2018-08-25T12:13:40.139Z,4.00
2018-08-25T12:14:44.351Z,3.47
2018-08-25T12:15:48.939Z,4.65
2018-08-25T12:16:53.106Z,3.95
2018-08-25T12:17:57.371Z,3.85
2018-08-25T12:19:01.521Z,3.70
2018-08-25T12:20:06.214Z,3.80
2018-08-25T12:21:10.350Z,3.90
2018-08-25T12:22:14.518Z,3.40
2018-08-25T12:23:18.733Z,2.70
2018-08-25T12:24:22.911Z,2.80
2018-08-25T12:25:27.095Z,2.50
2018-08-25T12:26:31.391Z,2.22
2018-08-25T12:27:35.587Z,2.47
2018-08-25T12:28:39.935Z,2.62
2018-08-25T12:29:44.111Z,2.00
2018-08-25T12:30:48.281Z,2.80
2018-08-25T12:31:52.621Z,2.45
2018-08-25T12:32:57.068Z,2.55
2018-08-25T12:34:01.257Z,2.33
2018-08-25T12:35:05.717Z,2.83
2018-08-25T12:36:09.996Z,3.35
2018-08-25T12:37:14.237Z,3.45
2018-08-25T12:38:18.753Z,3.22
2018-08-25T12:39:23.073Z,3.58
2018-08-25T12:40:27.254Z,3.55
2018-08-25T12:41:31.460Z,3.65
2018-08-25T12:42:35.664Z,2.67
2018-08-25T12:43:39.813Z,3.92
2018-08-25T12:44:44.496Z,3.60
2018-08-25T12:45:48.701Z,3.08
2018-08-25T12:46:53.035Z,3.50
2018-08-25T12:47:57.374Z,3.50
2018-08-25T12:49:01.613Z,3.30
2018-08-25T12:50:05.920Z,3.25
2018-08-25T12:51:10.138Z,3.58
2018-08-25T12:52:14.289Z,3.27
2018-08-25T12:53:18.428Z,3.22
2018-08-25T12:54:22.615Z,3.05
2018-08-25T12:55:26.841Z,3.10
2018-08-25T12:56:30.960Z,3.42
2018-08-25T12:57:35.279Z,2.60
2018-08-25T12:58:39.462Z,2.52
2018-08-25T12:59:46.806Z,2.37
2018-08-25T13:00:51.098Z,2.50
2018-08-25T13:01:55.471Z,2.70
2018-08-25T13:02:59.734Z,2.42
2018-08-25T13:04:06.333Z,2.42
2018-08-25T13:05:10.523Z,2.27
2018-08-25T13:06:14.663Z,2.47
2018-08-25T13:07:18.882Z,2.52
2018-08-25T13:08:23.059Z,2.05
2018-08-25T13:09:27.552Z,3.67
2018-08-25T13:10:31.743Z,2.33
2018-08-25T13:11:36.249Z,2.58
2018-08-25T13:12:40.445Z,2.50
2018-08-25T13:13:44.674Z,2.90
2018-08-25T13:14:48.899Z,2.83
2018-08-25T13:15:53.294Z,2.22
2018-08-25T13:16:57.484Z,2.37
2018-08-25T13:18:01.810Z,3.67
2018-08-25T13:19:06.192Z,2.35
2018-08-25T13:20:10.525Z,2.70
2018-08-25T13:21:14.759Z,2.30
2018-08-25T13:22:18.979Z,2.83
2018-08-25T13:23:23.204Z,3.50
2018-08-25T13:24:27.368Z,2.25
2018-08-25T13:25:31.586Z,2.42
2018-08-25T13:26:35.810Z,2.30
2018-08-25T13:27:40.218Z,1.60
2018-08-25T13:28:44.491Z,1.75
2018-08-25T13:29:48.781Z,1.70
2018-08-25T13:30:53.093Z,1.40
2018-08-25T13:31:57.331Z,1.60
2018-08-25T13:33:01.575Z,1.37
2018-08-25T13:34:05.943Z,1.37
2018-08-25T13:35:10.137Z,1.45
2018-08-25T13:36:14.348Z,1.45
2018-08-25T13:37:18.555Z,1.35
2018-08-25T13:38:22.903Z,1.40
2018-08-25T13:39:27.357Z,1.25
2018-08-25T13:40:31.909Z,1.50
2018-08-25T13:41:36.564Z,1.52
2018-08-25T13:42:40.882Z,2.05
2018-08-25T13:43:45.080Z,1.67
2018-08-25T13:44:49.600Z,1.70
2018-08-25T13:45:53.834Z,1.70
2018-08-25T13:46:58.208Z,1.90
2018-08-25T13:48:02.506Z,1.65
2018-08-25T13:49:06.946Z,2.02
2018-08-25T13:50:11.259Z,1.70
2018-08-25T13:51:15.512Z,1.65
2018-08-25T13:52:19.827Z,1.87
2018-08-25T13:53:24.015Z,1.60
2018-08-25T13:54:28.389Z,1.62
2018-08-25T13:55:32.940Z,2.00
2018-08-25T13:56:37.289Z,1.50
2018-08-25T13:57:41.628Z,1.70
2018-08-25T13:58:45.814Z,1.75
2018-08-25T13:59:49.997Z,1.75
2018-08-25T14:00:54.232Z,1.80
2018-08-25T14:01:58.663Z,1.50
2018-08-25T14:03:03.135Z,1.30
2018-08-25T14:04:07.369Z,1.12
2018-08-25T14:05:11.636Z,1.42
2018-08-25T14:06:15.982Z,1.85
2018-08-25T14:07:20.129Z,1.50
2018-08-25T14:08:24.666Z,1.60
2018-08-25T14:09:28.753Z,1.35
2018-08-25T14:10:32.915Z,1.37
2018-08-25T14:11:37.594Z,1.20
2018-08-25T14:12:41.767Z,1.45
2018-08-25T14:13:45.955Z,1.22
2018-08-25T14:14:50.175Z,1.10
2018-08-25T14:15:54.909Z,1.25